Time;durP1;ratioP1;P1;durP2;ratioP2;P2;SDS_P1;SDS_P2;PMS_P1;PMS_P2;Temp;Humidity;BMP_temperature;BMP_pressure;BME280_temperature;BME280_humidity;BME280_pressure;Samples;Min_cycle;Max_cycle;Signal;HPM_P1;HPM_P2
2021/12/28 00:00:41;;;;;;;;;;;;;;;-144.99;100.00;52615.25;5051528;28;19963;-59
2021/12/28 00:03:09;;;;;;;;;;;;;;;-144.99;100.00;52590.78;5055222;28;19929;-60
2021/12/28 00:05:35;;;;;;;;;;;;;;;-144.99;100.00;52627.47;5054657;28;19947;-59
2021/12/28 00:08:02;;;;;;;;;;;;;;;-144.99;100.00;52615.25;5049980;28;19925;-60
2021/12/28 00:10:28;;;;;;;97.45;56.08;;;;;;;-144.99;100.00;52545.94;5060696;28;19920;-59
2021/12/28 00:12:55;;;;;;;;;;;;;;;-144.99;100.00;52639.69;5050868;28;20224;-62
2021/12/28 00:18:05;;;;;;;;;;;;;;;-144.99;100.00;52633.59;5047437;28;19924;-60
2021/12/28 00:20:34;;;;;;;;;;;;;;;-144.99;100.00;52580.59;5058340;28;20365;-58
2021/12/28 00:23:02;;;;;;;;;;;;;;;-144.99;100.00;52598.94;5058705;28;19921;-61
2021/12/28 00:25:29;;;;;;;;;;;;;;;-144.99;100.00;52631.53;5050605;28;19955;-59
2021/12/28 00:27:55;;;;;;;;;;;;;;;-144.99;100.00;52656.00;5050317;28;20224;-61
2021/12/28 00:30:22;;;;;;;;;;;;;;;-144.99;100.00;52631.53;5048885;28;20385;-59
2021/12/28 00:32:52;;;;;;;;;;;;;;;-144.99;100.00;52603.00;5054330;28;19924;-60
2021/12/28 00:35:19;;;;;;;;;;;;;;;-144.99;100.00;52623.38;5049966;28;20001;-59
2021/12/28 00:37:47;;;;;;;;;;;;;;;-144.99;100.00;52641.72;5050822;28;19950;-61
2021/12/28 00:40:13;;;;;;;;;;;;;;;-144.99;100.00;52647.84;5055471;28;19931;-59
2021/12/28 00:42:39;;;;;;;;;;;;;;;-144.99;100.00;52639.69;5052155;28;19924;-61
2021/12/28 00:45:06;;;;;;;;;;;;;;;-144.99;100.00;52613.19;5046994;28;20067;-62
2021/12/28 00:47:32;;;;;;;;;;;;;;;-144.99;100.00;52639.69;5050908;28;19924;-60
2021/12/28 00:49:59;;;;;;;;;;;;;;;-144.99;100.00;52627.47;5056081;28;19924;-61
2021/12/28 00:52:25;;;;;;;;;;;;;;;-144.99;100.00;52590.78;5054128;28;19924;-60
2021/12/28 00:54:53;;;;;;;;;;;;;;;-144.99;100.00;52611.16;5046430;28;20362;-62
2021/12/28 00:57:21;;;;;;;;;;;;;;;-144.99;100.00;52611.16;5044553;28;19924;-64
2021/12/28 00:59:48;;;;;;;;;;;;;;;-144.99;100.00;52600.97;5051437;28;20019;-62
2021/12/28 01:02:14;;;;;;;;;;;;;;;-144.99;100.00;52635.63;5046207;28;20302;-62
2021/12/28 01:04:40;;;;;;;;;;;;;;;-144.99;100.00;52664.16;5046485;28;19924;-63
2021/12/28 01:07:07;;;;;;;;;;;;;;;-144.99;100.00;52664.16;5045277;28;19947;-63
2021/12/28 01:09:33;;;;;;;;;;;;;;;-144.99;100.00;52635.63;5045899;28;19920;-62
2021/12/28 01:12:05;;;;;;;;;;;;;;;-144.99;100.00;52641.72;5049393;28;20389;-62
2021/12/28 01:14:31;;;;;;;;;;;;;;;-144.99;100.00;52600.97;5050089;28;20361;-62
2021/12/28 01:16:59;;;;;;;;;;;;;;;-144.99;100.00;52623.38;5048349;28;19955;-62
2021/12/28 01:19:25;;;;;;;;;;;;;;;-144.99;100.00;52598.94;5050011;28;19929;-61
2021/12/28 01:21:52;;;;;;;;;;;;;;;-144.99;100.00;52590.78;5050199;28;20186;-61
2021/12/28 01:24:18;;;;;;;;;;;;;;;-144.99;100.00;52651.94;5049780;28;19924;-60
2021/12/28 01:26:45;;;;;;;;;;;;;;;-144.99;100.00;52603.00;5048483;28;19986;-60
2021/12/28 01:29:13;;;;;;;;;;;;;;;-144.99;100.00;52651.94;5050109;28;20373;-61
2021/12/28 01:31:39;;;;;;;;;;;;;;;-144.99;100.00;52598.94;5049938;28;19924;-61
2021/12/28 01:34:06;;;;;;;;;;;;;;;-144.99;100.00;52623.38;5049576;28;19925;-60
2021/12/28 01:36:33;;;;;;;;;;;;;;;-144.99;100.00;52627.47;5048196;28;19929;-60
2021/12/28 01:39:00;;;;;;;;;;;;;;;-144.99;100.00;52590.78;5048726;28;19920;-61
2021/12/28 01:41:26;;;;;;;;;;;;;;;-144.99;100.00;52643.78;5049502;28;19925;-62
2021/12/28 01:43:55;;;;;;;;;;;;;;;-144.99;100.00;52619.31;5049295;28;19931;-62
2021/12/28 01:46:23;;;;;;;;;;;;;;;-144.99;100.00;52629.50;5049598;28;19920;-62
2021/12/28 01:48:49;;;;;;;;;;;;;;;-144.99;100.00;52603.00;5047884;28;20385;-63
2021/12/28 01:51:17;;;;;;;;;;;;;;;-144.99;100.00;52627.47;5049659;28;19951;-65
2021/12/28 01:53:44;;;;;;;;;;;;;;;-144.99;100.00;52627.47;5049100;28;19924;-65
2021/12/28 01:56:11;;;;;;;;;;;;;;;-144.99;100.00;52639.69;5049392;28;19936;-64
2021/12/28 01:58:38;;;;;;;;;;;;;;;-144.99;100.00;52607.09;5048300;28;19931;-64
2021/12/28 02:01:05;;;;;;;;;;;;;;;-144.99;100.00;52621.34;5048564;28;19935;-63
2021/12/28 02:03:34;;;;;;;;;;;;;;;-144.99;100.00;52596.88;5049239;28;19931;-64
2021/12/28 02:06:01;;;;;;;;;;;;;;;-144.99;100.00;52641.72;5049345;28;19920;-63
2021/12/28 02:08:27;;;;;;;;;;;;;;;-144.99;100.00;52627.47;5047852;28;20383;-63
2021/12/28 02:10:55;;;;;;;;;;;;;;;-144.99;100.00;52629.50;5049552;28;20235;-63
2021/12/28 02:13:21;;;;;;;;;;;;;;;-144.99;100.00;52647.84;5050051;28;19927;-63
2021/12/28 02:15:50;;;;;;;;;;;;;;;-144.99;100.00;52635.63;5046202;28;20294;-64
2021/12/28 02:18:17;;;;;;;;;;;;;;;-144.99;100.00;52623.38;5048153;28;20380;-64
2021/12/28 02:20:45;;;;;;;;;;;;;;;-144.99;100.00;52635.63;5048482;28;19925;-63
2021/12/28 02:23:12;;;;;;;;;;;;;;;-144.99;100.00;52611.16;5043958;28;19932;-63
2021/12/28 02:25:39;;;;;;;;;;;;;;;-144.99;100.00;52590.78;5047647;28;19960;-62
2021/12/28 02:28:09;;;;;;;;;;;;;;;-144.99;100.00;52613.19;5048686;28;19928;-62
2021/12/28 02:30:36;;;;;;;;;;;;;;;-144.99;100.00;52619.31;5047001;28;19929;-62
2021/12/28 02:33:03;;;;;;;;;;;;;;;-144.99;100.00;52631.53;5048194;28;19933;-62
2021/12/28 02:35:29;;;;;;;;;;;;;;;-144.99;100.00;52627.47;5048493;28;19929;-61
2021/12/28 02:37:57;;;;;;;;;;;;;;;-144.99;100.00;52639.69;5048845;28;19933;-61
2021/12/28 02:40:24;;;;;;;;;;;;;;;-144.99;100.00;52643.78;5046533;28;19936;-61
2021/12/28 02:42:51;;;;;;;;;;;;;;;-144.99;100.00;52615.25;5046899;28;19936;-62
2021/12/28 02:45:20;;;;;;;;;;;;;;;-144.99;100.00;52664.16;5048987;28;20266;-64
2021/12/28 02:47:47;;;;;;;;;;;;;;;-144.99;100.00;52574.47;5047825;28;19929;-63
2021/12/28 02:50:14;;;;;;;;;;;;;;;-144.99;100.00;52627.47;5046671;28;20134;-63
2021/12/28 02:52:41;;;;;;;;;;;;;;;-144.99;100.00;52603.00;5048271;28;19929;-63
2021/12/28 02:55:10;;;;;;;;;;;;;;;-144.99;100.00;52592.81;5047366;28;20016;-64
2021/12/28 02:57:36;;;;;;;;;;;;;;;-144.99;100.00;52633.59;5048384;28;20249;-64
2021/12/28 03:00:04;;;;;;;;;;;;;;;-144.99;100.00;52623.38;5046589;28;19930;-62
2021/12/28 03:02:31;;;;;;;;;;;;;;;-144.99;100.00;52578.53;5047252;28;19936;-63
2021/12/28 03:04:57;;;;;;;;;;;;;;;-144.99;100.00;52627.47;5048090;28;20042;-62
2021/12/28 03:07:24;;;;;;;;;;;;;;;-144.99;100.00;52623.38;5048038;28;19925;-62
2021/12/28 03:09:51;;;;;;;;;;;;;;;-144.99;100.00;52619.31;5047108;28;19948;-61
2021/12/28 03:12:18;;;;;;;;;;;;;;;-144.99;100.00;52615.25;5047125;28;20367;-62
2021/12/28 03:14:48;;;;;;;;;;;;;;;-144.99;100.00;52598.94;5047319;28;19925;-60
2021/12/28 03:17:14;;;;;;;;;;;;;;;-144.99;100.00;52621.34;5047689;28;19928;-62
2021/12/28 03:19:41;;;;;;;125.18;62.25;;;;;;;-144.99;100.00;52635.63;5045890;28;24479;-63
2021/12/28 03:22:07;;;;;;;;;;;;;;;-144.99;100.00;52619.31;5045907;28;20232;-63
2021/12/28 03:24:33;;;;;;;;;;;;;;;-144.99;100.00;52613.19;5047248;28;20004;-65
2021/12/28 03:27:03;;;;;;;;;;;;;;;-144.99;100.00;52631.53;5047293;28;19920;-65
2021/12/28 03:29:30;;;;;;;;;;;;;;;-144.99;100.00;52607.09;5047293;28;19928;-63
2021/12/28 03:31:57;;;;;;;;;;;;;;;-144.99;100.00;52623.38;5045100;28;20297;-63
2021/12/28 03:34:23;;;;;;;;;;;;;;;-144.99;100.00;52594.84;5046608;28;20281;-63
2021/12/28 03:36:49;;;;;;;;;;;;;;;-144.99;100.00;52582.63;5046707;28;19947;-63
2021/12/28 03:39:16;;;;;;;;;;;;;;;-144.99;100.00;52590.78;5047305;28;19925;-64
2021/12/28 03:41:42;;;;;;;;;;;;;;;-144.99;100.00;52607.09;5045997;28;19924;-63
2021/12/28 03:44:08;;;;;;;;;;;;;;;-144.99;100.00;52598.94;5045976;28;19921;-65
2021/12/28 03:46:36;;;;;;;;;;;;;;;-144.99;100.00;52617.28;5047951;28;19924;-64
2021/12/28 03:49:03;;;;;;;;;;;;;;;-144.99;100.00;52590.78;4698124;28;9999601;-63
2021/12/28 03:51:29;;;;;;;;;;;;;;;-144.99;100.00;52607.09;5047552;28;19931;-63
2021/12/28 03:53:55;;;;;;;;;;;;;;;-144.99;100.00;52582.63;5047008;28;19925;-61
2021/12/28 03:56:22;;;;;;;;;;;;;;;-144.99;100.00;52590.78;5047473;28;19936;-61
2021/12/28 03:58:48;;;;;;;;;;;;;;;-144.99;100.00;52635.63;5046334;28;19951;-61
2021/12/28 04:01:17;;;;;;;;;;;;;;;-144.99;100.00;52611.16;5048693;28;19921;-63
2021/12/28 04:03:45;;;;;;;;;;;;;;;-144.99;100.00;52550.00;5047830;28;19932;-60
2021/12/28 04:06:11;;;;;;;;;;;;;;;-144.99;100.00;52623.38;5049640;28;19928;-59
2021/12/28 04:08:39;;;;;;;;;;;;;;;-144.99;100.00;52611.16;5048023;28;19920;-60
2021/12/28 04:11:15;;;;;;;;;;;;;;;-144.99;100.00;52590.78;5049687;28;20358;-59
2021/12/28 04:13:42;;;;;;;;;;;;;;;-144.99;100.00;52598.94;5049754;28;19920;-60
2021/12/28 04:16:09;;;;;;;;;;;;;;;-144.99;100.00;52615.25;5049796;28;19944;-60
2021/12/28 04:18:35;;;;;;;;;;;;;;;-144.99;100.00;52647.84;5048940;28;19928;-62
2021/12/28 04:21:03;;;;;;;;;;;;;;;-144.99;100.00;52607.09;5048884;28;20378;-60
2021/12/28 04:23:29;;;;;;;;;;;;;;;-144.99;100.00;52605.03;5048402;28;20366;-61
2021/12/28 04:25:56;;;;;;;;;;;;;;;-144.99;100.00;52611.16;5049448;28;19927;-61
2021/12/28 04:28:22;;;;;;;;;;;;;;;-144.99;100.00;52580.59;5049612;28;19925;-62
2021/12/28 04:30:48;;;;;;;;;;;;;;;-144.99;100.00;52594.84;5048087;28;20066;-62
2021/12/28 04:33:15;;;;;;;;;;;;;;;-144.99;100.00;52639.69;5049113;28;19928;-63
2021/12/28 04:35:41;;;;;;;;;;;;;;;-144.99;100.00;52580.59;5049658;28;19920;-61
2021/12/28 04:38:09;;;;;;;;;;;;;;;-144.99;100.00;52603.00;5049215;28;19924;-63
2021/12/28 04:40:35;;;;;;;;;;;;;;;-144.99;100.00;52635.63;5045938;28;19927;-62
2021/12/28 04:43:01;;;;;;;;;;;;;;;-144.99;100.00;52623.38;5050059;28;19936;-63
2021/12/28 04:45:29;;;;;;;;;;;;;;;-144.99;100.00;52635.63;5052300;28;20007;-63
2021/12/28 04:47:55;;;;;;;;;;;;;;;-144.99;100.00;52625.44;5055701;28;19921;-63
2021/12/28 04:50:21;;;;;;;;;;;;;;;-144.99;100.00;52625.44;5051634;28;19921;-63
2021/12/28 04:52:48;;;;;;;;;;;;;;;-144.99;100.00;52635.63;5053502;28;20294;-62
2021/12/28 04:55:18;;;;;;;;;;;;;;;-144.99;100.00;52609.13;5053818;28;19928;-63
2021/12/28 04:57:45;;;;;;;;;;;;;;;-144.99;100.00;52615.25;5053621;28;19964;-63
2021/12/28 05:00:14;;;;;;;;;;;;;;;-144.99;100.00;52631.53;5052603;28;19927;-63
2021/12/28 05:02:40;;;;;;;;;;;;;;;-144.99;100.00;52592.81;5051917;28;19924;-63
2021/12/28 05:05:08;;;;;;;;;;;;;;;-144.99;100.00;52651.94;5052279;28;19927;-64
2021/12/28 05:07:34;;;;;;;;;;;;;;;-144.99;100.00;52592.81;5053591;28;19929;-63
2021/12/28 05:10:01;;;;;;;;;;;;;;;-144.99;100.00;52643.78;5052741;28;20309;-63
2021/12/28 05:12:29;;;;;;;;;;;;;;;-144.99;100.00;52649.88;5048260;28;19925;-64
2021/12/28 05:14:58;;;;;;;;;;;;;;;-144.99;100.00;52603.00;5052606;28;20031;-65
2021/12/28 05:17:25;;;;;;;;;;;;;;;-144.99;100.00;52611.16;5053187;28;19967;-63
2021/12/28 05:19:51;;;;;;;;;;;;;;;-144.99;100.00;52594.84;5051804;28;19928;-64
2021/12/28 05:22:19;;;;;;;;;;;;;;;-144.99;100.00;52607.09;5049513;28;19928;-63
2021/12/28 05:24:48;;;;;;;;;;;;;;;-144.99;100.00;52643.78;5051848;28;20374;-64
2021/12/28 05:27:14;;;;;;;;;;;;;;;-144.99;100.00;52615.25;5052824;28;19927;-64
2021/12/28 05:29:42;;;;;;;;;;;;;;;-144.99;100.00;52586.69;5052691;28;19924;-63
2021/12/28 05:32:08;;;;;;;;;;;;;;;-144.99;100.00;52586.69;5050741;28;20287;-63
2021/12/28 05:34:39;;;;;;;;;;;;;;;-144.99;100.00;52617.28;5052506;28;20396;-63
2021/12/28 05:37:07;;;;;;;;;;;;;;;-144.99;100.00;52594.84;5053990;28;19952;-65
2021/12/28 05:39:33;;;;;;;;;;;;;;;-144.99;100.00;52596.88;5052663;28;20401;-64
2021/12/28 05:42:00;;;;;;;;;;;;;;;-144.99;100.00;52635.63;5051533;28;19961;-65
2021/12/28 05:44:26;;;;;;;;;;;;;;;-144.99;100.00;52627.47;5051445;28;20266;-65
2021/12/28 05:46:55;;;;;;;;;;;;;;;-144.99;100.00;52607.09;5052681;28;19921;-60
2021/12/28 05:49:22;;;;;;;;;;;;;;;-144.99;100.00;52594.84;5052283;28;19920;-60
2021/12/28 05:51:48;;;;;;;;;;;;;;;-144.99;100.00;52658.03;5052333;28;19927;-61
2021/12/28 05:54:15;;;;;;;;;;;;;;;-144.99;100.00;52637.66;5051294;28;20406;-60
2021/12/28 05:56:41;;;;;;;;;;;;;;;-144.99;100.00;52623.38;5052257;28;19921;-59
2021/12/28 05:59:08;;;;;;;;;;;;;;;-144.99;100.00;52588.75;5052803;28;19925;-59
2021/12/28 06:01:34;;;;;;;;;;;;;;;-144.99;100.00;52580.59;5053025;28;19921;-58
2021/12/28 06:04:02;;;;;;;;;;;;;;;-144.99;100.00;52617.28;5051608;28;19921;-58
2021/12/28 06:06:29;;;;;;;;;;;;;;;-144.99;100.00;52603.00;5052870;28;19921;-60
2021/12/28 06:08:59;;;;;;;;;;;;;;;-144.99;100.00;52619.31;5052668;28;19925;-59
2021/12/28 06:11:26;;;;;;;;;;;;;;;-144.99;100.00;52603.00;5052976;28;19987;-58
2021/12/28 06:13:52;;;;;;;;;;;;;;;-144.99;100.00;52627.47;5051492;28;19927;-59
2021/12/28 06:16:20;;;;;;;;;;;;;;;-144.99;100.00;52576.50;5053410;28;19925;-58
2021/12/28 06:18:47;;;;;;;;;;;;;;;-144.99;100.00;52607.09;5053148;28;19920;-59
2021/12/28 06:21:16;;;;;;;;;;;;;;;-144.99;100.00;52619.31;5052719;28;20297;-58
2021/12/28 06:23:43;;;;;;;;;;;;;;;-144.99;100.00;52598.94;5050372;28;20561;-59
2021/12/28 06:26:11;;;;;;;;;;;;;;;-144.99;100.00;52617.28;5050200;28;20432;-59
2021/12/28 06:28:37;;;;;;;;;;;;;;;-144.99;100.00;52615.25;5048962;28;19924;-60
2021/12/28 06:31:06;;;;;;;;;;;;;;;-144.99;100.00;52607.09;5051613;28;19935;-59
2021/12/28 06:33:33;;;;;;;;;;;;;;;-144.99;100.00;52615.25;5051500;28;19928;-61
2021/12/28 06:35:59;;;;;;;;;;;;;;;-144.99;100.00;52586.69;5051096;28;19921;-58
2021/12/28 06:38:29;;;;;;;;;;;;;;;-144.99;100.00;52643.78;5051758;28;19921;-60
2021/12/28 06:41:16;;;;;;;;;;;;;;;-144.99;100.00;52598.94;5051104;28;19921;-59
2021/12/28 06:43:43;;;;;;;;;;;;;;;-144.99;100.00;52611.16;5045707;28;20354;-59
2021/12/28 06:46:09;;;;;;;;;;;;;;;-144.99;100.00;52598.94;5043851;28;19928;-63
2021/12/28 06:48:39;;;;;;;;;;;;;;;-144.99;100.00;52594.84;5041966;28;19920;-62
2021/12/28 06:51:06;;;;;;;;;;;;;;;-144.99;100.00;52607.09;5041467;28;19935;-62
2021/12/28 06:53:34;;;;;;;;;;;;;;;-144.99;100.00;52607.09;5049046;28;19987;-62
2021/12/28 06:56:03;;;;;;;;;;;;;;;-144.99;100.00;52631.53;5046396;28;19940;-63
2021/12/28 06:58:31;;;;;;;;;;;;;;;-144.99;100.00;52627.47;5048187;28;19922;-64
2021/12/28 07:01:01;;;;;;;;;;;;;;;-144.99;100.00;52611.16;5047819;28;19932;-63
2021/12/28 07:03:30;;;;;;;;;;;;;;;-144.99;100.00;52619.31;5045875;28;20019;-61
2021/12/28 07:05:56;;;;;;;;;;;;;;;-144.99;100.00;52643.78;5045402;28;19943;-62
2021/12/28 07:08:23;;;;;;;;;;;;;;;-144.99;100.00;52651.94;5039394;28;19921;-63
2021/12/28 07:10:52;;;;;;;;;;;;;;;-144.99;100.00;52613.19;5048212;28;19921;-63
2021/12/28 07:13:18;;;;;;;;;;;;;;;-144.99;100.00;52623.38;5040935;28;20549;-62
2021/12/28 07:15:45;;;;;;;;;;;;;;;-144.99;100.00;52651.94;5041174;28;19925;-62
2021/12/28 07:18:11;;;;;;;;;;;;;;;-144.99;100.00;52615.25;5047939;28;19920;-63
2021/12/28 07:20:38;;;;;;;;;;;;;;;-144.99;100.00;52609.13;5041511;28;19963;-62
2021/12/28 07:23:04;;;;;;;;;;;;;;;-144.99;100.00;52619.31;5035148;28;19931;-62
2021/12/28 07:25:31;;;;;;;;;;;;;;;-144.99;100.00;52633.59;5043105;28;19929;-62
2021/12/28 07:27:59;;;;;;;;;;;;;;;-144.99;100.00;52594.84;5038851;28;19974;-62
2021/12/28 07:30:25;;;;;;;;;;;;;;;-144.99;100.00;52603.00;5040776;28;20002;-64
2021/12/28 07:33:00;;;;;;;;;;;;;;;-144.99;100.00;52611.16;5048553;28;19924;-61
2021/12/28 07:35:29;;;;;;;;;;;;;;;-144.99;100.00;52603.00;5042513;28;20350;-61
2021/12/28 07:37:55;;;;;;;;;;;;;;;-144.99;100.00;52611.16;5046157;28;20117;-61
2021/12/28 07:40:22;;;;;;;;;;;;;;;-144.99;100.00;52660.09;5040182;28;19948;-62
2021/12/28 07:42:51;;;;;;;;;;;;;;;-144.99;100.00;52600.97;5036874;28;19925;-60
2021/12/28 07:47:50;;;;;;;;;;;;;;;-144.99;100.00;52578.53;5038815;28;19932;-57
2021/12/28 07:50:18;;;;;;;;;;;;;;;-144.99;100.00;52629.50;5044981;28;20520;-57
2021/12/28 07:52:46;;;;;;;;;;;;;;;-144.99;100.00;52594.84;5044967;28;20334;-59
2021/12/28 07:55:13;;;;;;;;;;;;;;;-144.99;100.00;52578.53;5045829;28;19925;-59
2021/12/28 07:57:39;;;;;;;;;;;;;;;-144.99;100.00;52633.59;5044481;28;19928;-60
2021/12/28 08:00:07;;;;;;;;;;;;;;;-144.99;100.00;52607.09;5045552;28;19931;-61
2021/12/28 08:02:38;;;;;;;;;;;;;;;-144.99;100.00;52662.13;5046680;28;20297;-60
2021/12/28 08:05:07;;;;;;;;;;;;;;;-144.99;100.00;52623.38;5049242;28;20400;-60
2021/12/28 08:07:33;;;;;;;;;;;;;;;-144.99;100.00;52594.84;5044150;28;19920;-60
2021/12/28 08:09:59;;;;;;;;;;;;;;;-144.99;100.00;52578.53;5044269;28;19924;-62
2021/12/28 08:12:26;;;;;;;;;;;;;;;-144.99;100.00;52611.16;5043463;28;19925;-62
2021/12/28 08:14:52;;;;;;;;;;;;;;;-144.99;100.00;52590.78;5043760;28;19980;-63
2021/12/28 08:17:19;;;;;;;;;;;;;;;-144.99;100.00;52598.94;5045548;28;19921;-64
2021/12/28 08:19:45;;;;;;;;;;;;;;;-144.99;100.00;52619.31;5042685;28;19931;-63
2021/12/28 08:22:13;;;;;;;;;;;;;;;-144.99;100.00;52651.94;5047565;28;20381;-64
2021/12/28 08:24:39;;;;;;;;;;;;;;;-144.99;100.00;52674.34;5044977;28;19920;-64
2021/12/28 08:27:05;;;;;;;;;;;;;;;-144.99;100.00;52623.38;5043980;28;19924;-65
2021/12/28 08:29:32;;;;;;;;;;;;;;;-144.99;100.00;52607.09;5043727;28;19935;-63
2021/12/28 08:31:58;;;;;;;;;;;;;;;-144.99;100.00;52609.13;5045971;28;19921;-63
2021/12/28 08:34:25;;;;;;;;;;;;;;;-144.99;100.00;52570.38;5046305;28;19932;-64
2021/12/28 08:36:51;;;;;;;;;;;;;;;-144.99;100.00;52603.00;5046018;28;19921;-65
2021/12/28 08:39:19;;;;;;;;;;;;;;;-144.99;100.00;52631.53;5044620;28;19988;-63
2021/12/28 08:41:45;;;;;;;;;;;;;;;-144.99;100.00;52623.38;5046477;28;20502;-65
2021/12/28 08:44:11;;;;;;;;;;;;;;;-144.99;100.00;52592.81;5044305;28;20507;-63
2021/12/28 08:46:39;;;;;;;;;;;;;;;-144.99;100.00;52623.38;5044995;28;19925;-64
2021/12/28 08:49:06;;;;;;;;;;;;;;;-144.99;100.00;52627.47;5048104;28;19936;-63
2021/12/28 08:51:32;;;;;;;;;;;;;;;-144.99;100.00;52619.31;5044297;28;19925;-62
2021/12/28 08:53:59;;;;;;;;;;;;;;;-144.99;100.00;52619.31;5041000;28;19965;-61
2021/12/28 08:56:26;;;;;;;;;;;;;;;-144.99;100.00;52627.47;5044848;28;20015;-63
2021/12/28 08:58:53;;;;;;;;;;;;;;;-144.99;100.00;52629.50;5048691;28;19924;-62
2021/12/28 09:01:19;;;;;;;;;;;;;;;-144.99;100.00;52578.53;5042721;28;20206;-64
2021/12/28 09:03:46;;;;;;;;;;;;;;;-144.99;100.00;52594.84;5046222;28;19986;-65
2021/12/28 09:06:12;;;;;;;;;;;;;;;-144.99;100.00;52605.03;5045184;28;19940;-64
2021/12/28 09:08:38;;;;;;;;;;;;;;;-144.99;100.00;52603.00;5049951;28;20034;-64
2021/12/28 09:11:05;;;;;;;;;;;;;;;-144.99;100.00;52619.31;5044888;28;19946;-64
2021/12/28 09:13:32;;;;;;;;;;;;;;;-144.99;100.00;52656.00;5044948;28;20301;-65
2021/12/28 09:15:59;;;;;;;;;;;;;;;-144.99;100.00;52582.63;5045723;28;20415;-62
2021/12/28 09:18:25;;;;;;;;;;;;;;;-144.99;100.00;52582.63;5046403;28;20234;-62
2021/12/28 09:20:52;;;;;;;;;;;;;;;-144.99;100.00;52627.47;5045412;28;20388;-64
2021/12/28 09:23:18;;;;;;;;;;;;;;;-144.99;100.00;52609.13;5045887;28;19921;-63
2021/12/28 09:25:44;;;;;;;;;;;;;;;-144.99;100.00;52603.00;5046156;28;20297;-63
2021/12/28 09:28:11;;;;;;;;;;;;;;;-144.99;100.00;52603.00;5053041;28;20281;-63
2021/12/28 09:30:40;;;;;;;;;;;;;;;-144.99;100.00;52653.97;5043289;28;19924;-63
2021/12/28 09:33:06;;;;;;;;;;;;;;;-144.99;100.00;52643.78;4343974;28;10000749;-62
2021/12/28 09:35:33;;;;;;;;;;;;;;;-144.99;100.00;52590.78;5044741;28;19925;-65
2021/12/28 09:37:59;;;;;;;;;;;;;;;-144.99;100.00;52605.03;5050176;28;19920;-64
2021/12/28 09:40:25;;;;;;;;;;;;;;;-144.99;100.00;52603.00;5048023;28;19928;-62
2021/12/28 09:42:52;;;;;;;;;;;;;;;-144.99;100.00;52570.38;5041781;28;19938;-62
2021/12/28 09:45:18;;;;;;;;;;;;;;;-144.99;100.00;52590.78;5046593;28;20625;-62
2021/12/28 09:47:46;;;;;;;;;;;;;;;-144.99;100.00;52603.00;5041879;28;19928;-62
2021/12/28 09:50:15;;;;;;;;;;;;;;;-144.99;100.00;52586.69;5039301;28;19983;-63
2021/12/28 09:52:42;;;;;;;;;;;;;;;-144.99;100.00;52586.69;5043921;28;19924;-63
2021/12/28 09:55:10;;;;;;;;;;;;;;;-144.99;100.00;52578.53;5045483;28;19924;-63
2021/12/28 09:57:36;;;;;;;;;;;;;;;-144.99;100.00;52635.63;5045429;28;20149;-65
2021/12/28 10:00:04;;;;;;;;;;;;;;;-144.99;100.00;52598.94;5047333;28;19929;-64
2021/12/28 10:02:31;;;;;;;;;;;;;;;-144.99;100.00;52635.63;5043465;28;19925;-62
2021/12/28 10:05:05;;;;;;;;;;;;;;;-144.99;100.00;52578.53;5043742;28;19925;-62
2021/12/28 10:07:32;;;;;;;;;;;;;;;-144.99;100.00;52588.75;5046241;28;19948;-69
2021/12/28 10:09:58;;;;;;;;;;;;;;;-144.99;100.00;52598.94;5048287;28;19920;-69
2021/12/28 10:12:29;;;;;;;;;;;;;;;-144.99;100.00;52607.09;5043842;28;20019;-69
2021/12/28 10:15:00;;;;;;;;;;;;;;;-144.99;100.00;52566.31;5042903;28;20362;-71
2021/12/28 10:17:28;;;;;;;;;;;;;;;-144.99;100.00;52582.63;5045242;28;19925;-70
2021/12/28 10:19:54;;;;;;;;;;;;;;;-144.99;100.00;52580.59;5040796;28;20232;-70
2021/12/28 10:22:25;;;;;;;;;;;;;;;-144.99;100.00;52572.44;5045020;28;19921;-69
2021/12/28 10:24:55;;;;;;;;;;;;;;;-144.99;100.00;52603.00;5045114;28;20298;-69
2021/12/28 10:27:23;;;;;;;;;;;;;;;-144.99;100.00;52562.25;5044899;28;19964;-69
2021/12/28 10:29:50;;;;;;;;;;;;;;;-144.99;100.00;52570.38;5040945;28;20058;-69
2021/12/28 10:32:22;;;;;;;;;;;;;;;-144.99;100.00;52574.47;5046062;28;19935;-70
2021/12/28 10:34:49;;;;;;;;;;;;;;;-144.99;100.00;52611.16;5046357;28;19943;-69
2021/12/28 10:37:20;;;;;;;;;;;;;;;-144.99;100.00;52603.00;5040616;28;19921;-68
2021/12/28 10:39:49;;;;;;;;;;;;;;;-144.99;100.00;52623.38;5045045;28;19925;-69
2021/12/28 10:42:34;;;;;;;;;;;;;;;-144.99;100.00;52600.97;5036910;28;19925;-68
2021/12/28 10:45:00;;;;;;;;;;;;;;;-144.99;100.00;52590.78;5042980;28;20322;-68
2021/12/28 10:47:27;;;;;;;;;;;;;;;-144.99;100.00;52617.28;5044301;28;19928;-69
2021/12/28 10:49:54;;;;;;;;;;;;;;;-144.99;100.00;52613.19;5043913;28;20280;-69
2021/12/28 10:52:26;;;;;;;;;;;;;;;-144.99;100.00;52578.53;5043849;28;20362;-68
2021/12/28 10:55:14;;;;;;;;;;;;;;;-144.99;100.00;52619.31;5042376;28;19929;-69
2021/12/28 10:57:41;;;;;;;;;;;;;;;-144.99;100.00;52603.00;5046005;28;19925;-69
2021/12/28 11:00:22;;;;;;;;;;;;;;;-144.99;100.00;52582.63;5044863;28;20003;-69
2021/12/28 11:02:48;;;;;;;;;;;;;;;-144.99;100.00;52590.78;5043805;28;20476;-69
2021/12/28 11:05:30;;;;;;;;;;;;;;;-144.99;100.00;52603.00;5048450;28;19947;-69
2021/12/28 11:08:01;;;;;;;;;;;;;;;-144.99;100.00;52603.00;5044932;28;20370;-69
2021/12/28 11:10:29;;;;;;;;;;;;;;;-144.99;100.00;52615.25;5049175;28;20102;-69
2021/12/28 11:12:56;;;;;;;;;;;;;;;-144.99;100.00;52615.25;5045169;28;19924;-68
2021/12/28 11:15:22;;;;;;;;;;;;;;;-144.99;100.00;52609.13;5044850;28;20232;-69
2021/12/28 11:17:51;;;;;;;;;;;;;;;-144.99;100.00;52607.09;5045103;28;19960;-68
2021/12/28 11:20:28;;;;;;;;;;;;;;;-144.99;100.00;52627.47;5044869;28;19931;-68
2021/12/28 11:23:10;;;;;;;;;;;;;;;-144.99;100.00;52584.66;5041834;28;20242;-69
2021/12/28 11:25:38;;;;;;;;;;;;;;;-144.99;100.00;52586.69;5038915;28;19924;-68
2021/12/28 11:28:11;;;;;;;;;;;;;;;-144.99;100.00;52586.69;5040697;28;19920;-69
2021/12/28 11:30:38;;;;;;;;;;;;;;;-144.99;100.00;52627.47;5041430;28;19924;-69
2021/12/28 11:33:08;;;;;;;;;;;;;;;-144.99;100.00;52609.13;5045349;28;20628;-69
2021/12/28 11:35:35;;;;;;;;;;;;;;;-144.99;100.00;52609.13;5046233;28;20566;-69
2021/12/28 11:38:01;;;;;;;;;;;;;;;-144.99;100.00;52574.47;5046567;28;19943;-69
2021/12/28 11:40:31;;;;;;;;;;;;;;;-144.99;100.00;52631.53;5044063;28;19924;-70
2021/12/28 11:42:59;;;;;;;;;;;;;;;-144.99;100.00;52603.00;5045058;28;19998;-69
2021/12/28 11:45:25;;;;;;;;;;;;;;;-144.99;100.00;52598.94;5045831;28;19924;-69
2021/12/28 11:47:51;;;;;;;;;;;;;;;-144.99;100.00;52598.94;5046442;28;19920;-68
2021/12/28 11:50:19;;;;;;;;;;;;;;;-144.99;100.00;52550.00;5044441;28;20346;-69
2021/12/28 11:52:45;;;;;;;;;;;;;;;-144.99;100.00;52607.09;5041165;28;19951;-70
2021/12/28 11:55:11;;;;;;;;;;;;;;;-144.99;100.00;52580.59;5042386;28;19952;-69
2021/12/28 11:57:48;;;;;;;;;;;;;;;-144.99;100.00;52582.63;5042843;28;20349;-70
2021/12/28 12:00:19;;;;;;;;;;;;;;;-144.99;100.00;52615.25;5044453;28;20671;-70
2021/12/28 12:02:48;;;;;;;;;;;;;;;-144.99;100.00;52603.00;5045420;28;19925;-69
2021/12/28 12:05:16;;;;;;;;;;;;;;;-144.99;100.00;52537.78;5040602;28;19927;-69
2021/12/28 12:07:43;;;;;;;;;;;;;;;-144.99;100.00;52578.53;5041580;28;20011;-69
2021/12/28 12:10:18;;;;;;;;;;;;;;;-144.99;100.00;52578.53;5044536;28;19926;-69
2021/12/28 12:12:47;;;;;;;;;;;;;;;-144.99;100.00;52586.69;5042697;28;20348;-68
2021/12/28 12:15:14;;;;;;;;;;;;;;;-144.99;100.00;52572.44;5044122;28;19944;-69
2021/12/28 12:17:44;;;;;;;;;;;;;;;-144.99;100.00;52570.38;5046987;28;19947;-69
2021/12/28 12:20:22;;;;;;;;;;;;;;;-144.99;100.00;52590.78;5044488;28;20083;-69
2021/12/28 12:22:50;;;;;;;;;;;;;;;-144.99;100.00;52588.75;5045911;28;20266;-69